createdAt,value
2018-12-09T00:00:09.357Z,9.70
2018-12-09T00:02:37.625Z,9.80
2018-12-09T00:05:06.052Z,9.80
2018-12-09T00:07:34.678Z,9.90
2018-12-09T00:10:03.124Z,9.80
2018-12-09T00:12:31.357Z,9.90
2018-12-09T00:14:59.641Z,9.90
2018-12-09T00:17:27.911Z,9.90
2018-12-09T00:19:56.162Z,9.80
2018-12-09T00:22:24.455Z,9.90
2018-12-09T00:24:52.710Z,10.10
2018-12-09T00:27:20.974Z,10.20
2018-12-09T00:29:49.827Z,10.20
2018-12-09T00:32:18.078Z,10.30
2018-12-09T00:34:46.349Z,10.30
2018-12-09T00:37:14.651Z,10.20
2018-12-09T00:39:42.910Z,10.30
2018-12-09T00:42:11.169Z,10.10
2018-12-09T00:44:39.456Z,10.10
2018-12-09T00:47:07.801Z,10.00
2018-12-09T00:49:36.098Z,10.00
2018-12-09T00:52:04.882Z,9.80
2018-12-09T00:54:33.144Z,9.80
2018-12-09T00:57:01.392Z,9.70
2018-12-09T00:59:29.682Z,9.70
2018-12-09T01:01:58.051Z,9.60
2018-12-09T01:04:26.403Z,9.50
2018-12-09T01:06:54.686Z,9.50
2018-12-09T01:09:22.947Z,9.40
2018-12-09T01:11:51.204Z,9.40
2018-12-09T01:14:20.006Z,9.20
2018-12-09T01:16:48.252Z,9.10
2018-12-09T01:19:16.582Z,9.00
2018-12-09T01:21:44.867Z,8.90
2018-12-09T01:24:13.198Z,8.80
2018-12-09T01:26:41.450Z,8.70
2018-12-09T01:29:09.725Z,8.60
2018-12-09T01:31:38.012Z,8.60
2018-12-09T01:34:06.266Z,8.50
2018-12-09T01:36:34.747Z,8.50
2018-12-09T01:39:03.569Z,8.50
2018-12-09T01:41:31.818Z,8.50
2018-12-09T01:44:00.106Z,8.50
2018-12-09T01:46:29.144Z,8.60
2018-12-09T01:48:57.374Z,8.60
2018-12-09T01:51:25.642Z,8.70
2018-12-09T01:54:11.063Z,8.70
2018-12-09T01:56:40.377Z,8.70
2018-12-09T01:59:08.716Z,8.70
2018-12-09T02:01:36.965Z,8.60
2018-12-09T02:04:06.080Z,8.70
2018-12-09T02:06:35.101Z,8.70
2018-12-09T02:09:04.933Z,8.70
2018-12-09T02:11:33.367Z,8.70
2018-12-09T02:14:01.706Z,8.70
2018-12-09T02:16:29.970Z,8.80
2018-12-09T02:19:15.385Z,8.80
2018-12-09T02:21:44.185Z,8.80
2018-12-09T02:24:12.634Z,8.80
2018-12-09T02:26:41.090Z,8.80
2018-12-09T02:29:09.377Z,8.80
2018-12-09T02:31:37.623Z,8.90
2018-12-09T02:34:06.029Z,9.00
2018-12-09T02:36:34.862Z,9.00
2018-12-09T02:39:04.637Z,9.00
2018-12-09T02:41:33.162Z,9.00
2018-12-09T02:44:01.478Z,9.00
2018-12-09T02:46:29.718Z,9.00
2018-12-09T02:48:58.074Z,9.10
2018-12-09T02:51:26.327Z,9.10
2018-12-09T02:53:54.573Z,9.10
2018-12-09T02:56:23.023Z,9.10
2018-12-09T02:58:51.965Z,9.10
2018-12-09T03:01:20.253Z,9.10
2018-12-09T03:03:48.586Z,9.10
2018-12-09T03:06:17.083Z,9.10
2018-12-09T03:08:45.383Z,9.00
2018-12-09T03:11:13.709Z,9.00
2018-12-09T03:13:41.957Z,9.00
2018-12-09T03:16:10.218Z,9.00
2018-12-09T03:18:38.565Z,9.00
2018-12-09T03:21:07.392Z,8.90
2018-12-09T03:23:35.626Z,8.90
2018-12-09T03:26:04.063Z,8.80
2018-12-09T03:28:32.314Z,8.80
2018-12-09T03:31:00.654Z,8.90
2018-12-09T03:33:28.925Z,8.90
2018-12-09T03:35:57.182Z,8.90
2018-12-09T03:38:25.448Z,8.90
2018-12-09T03:40:53.722Z,8.90
2018-12-09T03:43:21.974Z,8.90
2018-12-09T03:45:50.231Z,8.70
2018-12-09T03:48:18.654Z,8.30
2018-12-09T03:50:46.918Z,7.90
2018-12-09T03:53:15.354Z,7.60
2018-12-09T03:55:43.613Z,7.50
2018-12-09T03:58:11.970Z,7.40
2018-12-09T04:00:40.379Z,7.40
2018-12-09T04:03:08.683Z,7.30
2018-12-09T04:05:37.063Z,7.40
2018-12-09T04:08:06.127Z,7.40
2018-12-09T04:10:34.463Z,7.50
2018-12-09T04:13:02.716Z,7.50
2018-12-09T04:15:33.038Z,7.40
2018-12-09T04:18:01.326Z,7.50
2018-12-09T04:20:29.587Z,7.50
2018-12-09T04:22:57.840Z,7.50
2018-12-09T04:25:26.134Z,7.50
2018-12-09T04:27:54.386Z,7.60
2018-12-09T04:30:22.638Z,7.60
2018-12-09T04:32:50.973Z,7.70
2018-12-09T04:35:19.227Z,7.70
2018-12-09T04:37:47.481Z,7.70
2018-12-09T04:40:15.762Z,7.70
2018-12-09T04:42:44.411Z,7.70
2018-12-09T04:45:12.666Z,7.70
2018-12-09T04:47:41.474Z,7.80
2018-12-09T04:50:09.730Z,7.80
2018-12-09T04:52:37.983Z,7.80
2018-12-09T04:55:06.619Z,7.90
2018-12-09T04:57:34.863Z,7.90
2018-12-09T05:03:09.262Z,7.90
2018-12-09T05:05:37.544Z,8.00
2018-12-09T05:08:05.916Z,8.00
2018-12-09T05:10:34.186Z,8.00
2018-12-09T05:13:02.978Z,8.00
2018-12-09T05:15:31.234Z,8.00
2018-12-09T05:17:59.573Z,8.00
2018-12-09T05:20:27.863Z,8.00
2018-12-09T05:22:56.122Z,8.00
2018-12-09T05:25:24.374Z,8.00
2018-12-09T05:27:52.666Z,8.00
2018-12-09T05:30:22.085Z,8.10
2018-12-09T05:32:50.346Z,8.10
2018-12-09T05:35:19.299Z,8.10
2018-12-09T05:37:47.547Z,8.00
2018-12-09T05:40:15.804Z,8.00
2018-12-09T05:42:44.098Z,8.00
2018-12-09T05:45:12.435Z,8.00
2018-12-09T05:47:41.310Z,7.90
2018-12-09T05:50:09.590Z,7.90
2018-12-09T05:52:37.891Z,7.80
2018-12-09T05:55:06.414Z,7.80
2018-12-09T05:57:35.116Z,7.80
2018-12-09T06:00:04.430Z,7.70
2018-12-09T06:02:44.546Z,7.70
2018-12-09T06:05:12.806Z,7.70
2018-12-09T06:07:41.078Z,7.70
2018-12-09T06:10:09.354Z,7.70
2018-12-09T06:12:37.706Z,7.80
2018-12-09T06:15:06.139Z,7.80
2018-12-09T06:17:34.467Z,7.70
2018-12-09T06:20:02.874Z,7.70
2018-12-09T06:22:31.122Z,7.70
2018-12-09T06:24:59.504Z,7.70
2018-12-09T06:27:27.752Z,7.70
2018-12-09T06:29:56.006Z,7.70
2018-12-09T06:32:24.281Z,7.70
2018-12-09T06:34:52.534Z,7.60
2018-12-09T06:37:20.904Z,7.60
2018-12-09T06:39:49.858Z,7.60
2018-12-09T06:42:18.102Z,7.60
2018-12-09T06:44:46.526Z,7.60
2018-12-09T06:47:14.867Z,7.60
2018-12-09T06:49:43.121Z,7.70
2018-12-09T06:52:11.378Z,7.70
2018-12-09T06:54:39.658Z,7.70
2018-12-09T06:57:08.027Z,7.70
2018-12-09T06:59:36.283Z,7.70
2018-12-09T07:02:04.706Z,7.70
2018-12-09T07:04:32.971Z,7.60
2018-12-09T07:07:01.215Z,7.60
2018-12-09T07:09:29.499Z,7.60
2018-12-09T07:11:57.762Z,7.70
2018-12-09T07:14:26.190Z,7.70
2018-12-09T07:16:54.466Z,7.70
2018-12-09T07:19:22.718Z,7.80
2018-12-09T07:21:50.978Z,7.80
2018-12-09T07:24:19.640Z,7.80
2018-12-09T07:26:48.055Z,7.80
2018-12-09T07:29:16.318Z,7.90
2018-12-09T07:31:44.590Z,7.90
2018-12-09T07:34:12.850Z,8.00
2018-12-09T07:36:41.113Z,8.00
2018-12-09T07:39:09.398Z,8.00
2018-12-09T07:41:37.637Z,8.10
2018-12-09T07:44:05.891Z,8.10
2018-12-09T07:46:34.262Z,8.10
2018-12-09T07:49:02.522Z,8.10
2018-12-09T07:51:30.777Z,8.10
2018-12-09T07:53:59.063Z,8.20
2018-12-09T07:56:27.312Z,8.20
2018-12-09T07:58:55.558Z,8.20
2018-12-09T08:01:23.942Z,8.20
2018-12-09T08:03:52.400Z,8.30
2018-12-09T08:06:20.641Z,8.30
2018-12-09T08:08:49.052Z,8.30
2018-12-09T08:11:18.198Z,8.30
2018-12-09T08:13:46.531Z,8.30
2018-12-09T08:16:15.360Z,8.40
2018-12-09T08:18:43.610Z,8.40
2018-12-09T08:21:11.983Z,8.40
2018-12-09T08:23:40.232Z,8.40
2018-12-09T08:26:08.490Z,8.50
2018-12-09T08:28:36.743Z,8.50
2018-12-09T08:31:05.378Z,8.50
2018-12-09T08:33:33.634Z,8.40
2018-12-09T08:36:02.064Z,8.40
2018-12-09T08:38:30.376Z,8.50
2018-12-09T08:40:58.623Z,8.50
2018-12-09T08:43:26.880Z,8.50
2018-12-09T08:45:55.169Z,8.50
2018-12-09T08:48:23.421Z,8.50
2018-12-09T08:50:51.689Z,8.50
2018-12-09T08:53:20.107Z,8.30
2018-12-09T08:55:48.354Z,8.30
2018-12-09T08:58:16.609Z,8.30
2018-12-09T09:00:44.885Z,8.20
2018-12-09T09:03:13.148Z,8.20
2018-12-09T09:05:41.406Z,8.20
2018-12-09T09:08:09.694Z,8.20
2018-12-09T09:10:37.954Z,8.20
2018-12-09T09:13:06.206Z,8.30
2018-12-09T09:15:34.978Z,8.40
2018-12-09T09:18:03.622Z,8.40
2018-12-09T09:20:31.894Z,8.50
2018-12-09T09:23:00.169Z,8.50
2018-12-09T09:25:28.422Z,8.50
2018-12-09T09:27:56.678Z,8.50
2018-12-09T09:30:24.955Z,8.60
2018-12-09T09:32:53.230Z,8.60
2018-12-09T09:35:21.626Z,8.70
2018-12-09T09:37:50.081Z,8.70
2018-12-09T09:40:18.326Z,8.70
2018-12-09T09:42:46.582Z,8.70
2018-12-09T09:45:14.925Z,8.70
2018-12-09T09:47:43.218Z,8.70
2018-12-09T09:50:12.199Z,8.70
2018-12-09T09:52:41.842Z,8.70
2018-12-09T09:55:10.193Z,8.80
2018-12-09T09:57:41.650Z,8.80
2018-12-09T10:00:10.030Z,8.90
2018-12-09T10:02:38.286Z,8.90
2018-12-09T10:05:06.622Z,8.90
2018-12-09T10:07:34.894Z,9.00
2018-12-09T10:10:04.019Z,9.00
2018-12-09T10:12:32.275Z,9.10
2018-12-09T10:15:00.561Z,9.00
2018-12-09T10:17:28.833Z,9.00
2018-12-09T10:19:57.577Z,9.10
2018-12-09T10:22:26.146Z,9.10
2018-12-09T10:24:54.389Z,9.20
2018-12-09T10:27:22.638Z,9.20
2018-12-09T10:29:50.918Z,9.20
2018-12-09T10:32:19.470Z,9.20
2018-12-09T10:34:47.722Z,9.20
2018-12-09T10:37:16.157Z,9.20
2018-12-09T10:39:45.087Z,9.20
2018-12-09T10:42:13.438Z,9.20
2018-12-09T10:44:41.866Z,9.30
2018-12-09T10:47:10.142Z,9.30
2018-12-09T10:49:38.374Z,9.30
2018-12-09T10:52:06.657Z,9.30
2018-12-09T10:54:34.987Z,9.30
2018-12-09T10:57:03.264Z,9.40
2018-12-09T10:59:31.610Z,9.40
2018-12-09T11:04:55.630Z,9.40
2018-12-09T11:07:23.893Z,9.30
2018-12-09T11:09:52.134Z,9.30
2018-12-09T11:12:20.426Z,9.30
2018-12-09T11:14:48.674Z,9.30
2018-12-09T11:17:16.931Z,9.40
2018-12-09T11:19:45.205Z,9.40
2018-12-09T11:22:13.922Z,9.50
2018-12-09T11:24:42.175Z,9.50
2018-12-09T11:27:10.736Z,9.50
2018-12-09T11:29:38.991Z,9.50
2018-12-09T11:32:07.254Z,9.50
2018-12-09T11:34:36.743Z,9.50
2018-12-09T11:37:05.006Z,9.50
2018-12-09T11:39:33.588Z,9.60
2018-12-09T11:42:03.098Z,9.70
2018-12-09T11:44:32.826Z,9.70
2018-12-09T11:47:01.088Z,9.80
2018-12-09T11:49:29.414Z,9.80
2018-12-09T11:51:57.824Z,9.80
2018-12-09T11:54:26.072Z,9.70
2018-12-09T11:56:54.362Z,9.70
2018-12-09T11:59:24.806Z,9.60
2018-12-09T12:01:53.063Z,9.60
2018-12-09T12:04:21.357Z,9.50
2018-12-09T12:06:49.622Z,9.50
2018-12-09T12:09:17.879Z,9.40
2018-12-09T12:11:46.223Z,9.40
2018-12-09T12:14:14.486Z,9.40
2018-12-09T12:16:42.846Z,9.30
2018-12-09T12:19:11.251Z,9.30
2018-12-09T12:21:39.504Z,9.30
2018-12-09T12:24:08.083Z,9.30
2018-12-09T12:26:36.358Z,9.30
2018-12-09T12:29:04.609Z,9.30
2018-12-09T12:31:32.874Z,9.30
2018-12-09T12:34:01.543Z,9.30
2018-12-09T12:36:29.793Z,9.20
2018-12-09T12:38:58.055Z,9.20
2018-12-09T12:41:26.486Z,9.20
2018-12-09T12:43:54.796Z,9.20
2018-12-09T12:46:23.499Z,9.20
2018-12-09T12:48:54.030Z,9.10
2018-12-09T12:51:22.370Z,9.10
2018-12-09T12:53:50.701Z,9.20
2018-12-09T12:56:19.074Z,9.20
2018-12-09T12:58:47.595Z,9.20
2018-12-09T13:01:15.822Z,9.20
2018-12-09T13:03:44.093Z,9.10
2018-12-09T13:06:12.634Z,9.00
2018-12-09T13:08:40.902Z,8.90
2018-12-09T13:11:09.183Z,8.80
2018-12-09T13:13:37.442Z,8.70
2018-12-09T13:16:12.895Z,8.60
2018-12-09T13:18:41.154Z,8.60
2018-12-09T13:21:09.410Z,8.60
2018-12-09T13:23:37.706Z,8.50
2018-12-09T13:26:06.475Z,8.60
2018-12-09T13:28:34.814Z,8.50
2018-12-09T13:31:03.098Z,8.50
2018-12-09T13:33:31.499Z,8.50
2018-12-09T13:35:59.758Z,8.50
2018-12-09T13:38:28.167Z,8.50
2018-12-09T13:40:56.458Z,8.50
2018-12-09T13:43:24.721Z,8.50
2018-12-09T13:45:53.128Z,8.50
2018-12-09T13:48:21.378Z,8.50
2018-12-09T13:50:49.710Z,8.50
2018-12-09T13:53:18.062Z,8.50
2018-12-09T13:55:46.343Z,8.60
2018-12-09T13:58:14.599Z,8.60
2018-12-09T14:00:42.931Z,8.60
2018-12-09T14:03:12.370Z,8.70
2018-12-09T14:05:40.618Z,8.70
2018-12-09T14:08:08.907Z,8.80
2018-12-09T14:10:38.122Z,8.90
2018-12-09T14:13:06.411Z,8.90
2018-12-09T14:15:34.782Z,8.80
2018-12-09T14:18:03.280Z,8.80
2018-12-09T14:20:31.614Z,8.80
2018-12-09T14:23:00.050Z,8.80
2018-12-09T14:25:28.302Z,8.80
2018-12-09T14:27:56.556Z,8.90
2018-12-09T14:30:24.830Z,8.80
2018-12-09T14:32:53.078Z,8.60
2018-12-09T14:35:21.334Z,8.60
2018-12-09T14:37:49.630Z,8.50
2018-12-09T14:40:18.914Z,8.50
2018-12-09T14:42:47.175Z,8.50
2018-12-09T14:45:15.494Z,8.50
2018-12-09T14:47:43.753Z,8.50
2018-12-09T14:50:12.090Z,8.50
2018-12-09T14:52:40.526Z,8.40
2018-12-09T14:55:10.467Z,8.40
2018-12-09T14:57:38.950Z,8.40
2018-12-09T15:00:08.306Z,8.40
2018-12-09T15:02:36.567Z,8.40
2018-12-09T15:05:05.418Z,8.40
2018-12-09T15:07:35.028Z,8.40
2018-12-09T15:10:08.563Z,8.30
2018-12-09T15:12:34.234Z,8.30
2018-12-09T15:15:02.691Z,8.20
2018-12-09T15:17:30.938Z,8.10
2018-12-09T15:19:59.190Z,8.10
2018-12-09T15:22:27.481Z,8.10
2018-12-09T15:24:55.951Z,8.00
2018-12-09T15:27:24.230Z,8.00
2018-12-09T15:29:52.558Z,8.00
2018-12-09T15:32:20.814Z,8.00
2018-12-09T15:34:49.062Z,8.10
2018-12-09T15:37:17.339Z,8.10
2018-12-09T15:39:45.601Z,8.00
2018-12-09T15:42:13.849Z,8.10
2018-12-09T15:44:42.192Z,8.00
2018-12-09T15:47:10.438Z,8.10
2018-12-09T15:49:38.701Z,8.00
2018-12-09T15:52:07.302Z,8.00
2018-12-09T15:54:35.638Z,8.00
2018-12-09T15:57:03.910Z,8.00
2018-12-09T15:59:32.528Z,8.00
2018-12-09T16:02:01.126Z,8.00
2018-12-09T16:04:29.386Z,8.00
2018-12-09T16:06:57.690Z,7.90
2018-12-09T16:09:25.946Z,7.90
2018-12-09T16:11:54.212Z,7.90
2018-12-09T16:14:22.538Z,7.90
2018-12-09T16:16:50.790Z,7.90
2018-12-09T16:19:19.047Z,7.90
2018-12-09T16:21:47.322Z,7.90
2018-12-09T16:24:15.574Z,8.00
2018-12-09T16:26:43.839Z,8.00
2018-12-09T16:29:12.466Z,8.00
2018-12-09T16:31:40.714Z,8.00
2018-12-09T16:34:08.972Z,8.00
2018-12-09T16:36:37.504Z,8.10
2018-12-09T16:39:06.232Z,8.10
2018-12-09T16:41:34.478Z,8.10
2018-12-09T16:44:02.758Z,8.10
2018-12-09T16:46:31.018Z,8.10
2018-12-09T16:48:59.257Z,8.10
2018-12-09T16:51:27.538Z,8.10
2018-12-09T16:53:55.952Z,8.10
2018-12-09T16:56:24.178Z,8.20
2018-12-09T16:58:52.906Z,8.20
2018-12-09T17:01:21.158Z,8.20
2018-12-09T17:03:49.413Z,8.10
2018-12-09T17:06:17.694Z,8.20
2018-12-09T17:08:45.951Z,8.10
2018-12-09T17:11:14.196Z,8.10
2018-12-09T17:13:42.554Z,8.10
2018-12-09T17:16:10.811Z,8.00
2018-12-09T17:18:39.067Z,8.00
2018-12-09T17:21:07.397Z,8.00
2018-12-09T17:23:35.699Z,8.00
2018-12-09T17:26:03.951Z,8.00
2018-12-09T17:28:32.254Z,8.00
2018-12-09T17:31:00.535Z,8.00
2018-12-09T17:33:28.795Z,8.00
2018-12-09T17:35:57.068Z,8.10
2018-12-09T17:38:25.577Z,8.10
2018-12-09T17:40:53.930Z,8.10
2018-12-09T17:43:22.243Z,8.10
2018-12-09T17:45:50.498Z,8.20
2018-12-09T17:48:18.764Z,8.20
2018-12-09T17:50:47.037Z,8.10
2018-12-09T17:53:15.290Z,8.10
2018-12-09T17:55:43.553Z,8.10
2018-12-09T17:58:11.894Z,8.00
2018-12-09T18:00:40.146Z,8.00
2018-12-09T18:03:08.397Z,8.00
2018-12-09T18:05:36.928Z,7.90
2018-12-09T18:08:05.181Z,7.90
2018-12-09T18:10:33.426Z,7.90
2018-12-09T18:13:01.730Z,7.90
2018-12-09T18:15:29.979Z,7.90
2018-12-09T18:17:58.222Z,7.90
2018-12-09T18:20:26.498Z,7.90
2018-12-09T18:22:54.767Z,7.80
2018-12-09T18:25:23.019Z,7.80
2018-12-09T18:27:51.494Z,7.80
2018-12-09T18:30:19.746Z,7.80
2018-12-09T18:32:48.618Z,7.70
2018-12-09T18:35:16.894Z,7.70
2018-12-09T18:37:46.502Z,7.80
2018-12-09T18:40:14.898Z,7.70
2018-12-09T18:42:43.183Z,7.80
2018-12-09T18:45:11.513Z,7.80
2018-12-09T18:47:39.810Z,7.90
2018-12-09T18:50:08.382Z,7.90
2018-12-09T18:52:36.635Z,8.00
2018-12-09T18:55:05.354Z,8.10
2018-12-09T18:57:33.634Z,8.00
2018-12-09T19:00:01.911Z,8.10
2018-12-09T19:02:30.169Z,8.10
2018-12-09T19:04:58.442Z,8.10
2018-12-09T19:07:26.735Z,8.10
2018-12-09T19:09:55.278Z,8.20
2018-12-09T19:12:23.705Z,8.10
2018-12-09T19:14:51.954Z,8.10
2018-12-09T19:17:20.210Z,8.20
2018-12-09T19:19:48.484Z,8.20
2018-12-09T19:22:16.742Z,8.20
2018-12-09T19:24:44.995Z,8.30
2018-12-09T19:27:13.284Z,8.20
2018-12-09T19:29:41.541Z,8.30
2018-12-09T19:32:09.789Z,8.20
2018-12-09T19:34:38.707Z,8.30
2018-12-09T19:37:06.966Z,8.30
2018-12-09T19:39:35.219Z,8.30
2018-12-09T19:42:03.574Z,8.30
2018-12-09T19:44:31.988Z,8.40
2018-12-09T19:47:00.239Z,8.30
2018-12-09T19:49:28.543Z,8.40
2018-12-09T19:51:56.902Z,8.40
2018-12-09T19:54:25.143Z,8.50
2018-12-09T19:56:53.680Z,8.50
2018-12-09T19:59:21.945Z,8.50
2018-12-09T20:01:50.219Z,8.50
2018-12-09T20:04:18.498Z,8.60
2018-12-09T20:06:46.749Z,8.60
2018-12-09T20:09:15.159Z,8.50
2018-12-09T20:11:43.532Z,8.50
2018-12-09T20:14:11.810Z,8.50
2018-12-09T20:16:40.056Z,8.50
2018-12-09T20:19:08.542Z,8.50
2018-12-09T20:21:36.793Z,8.40
2018-12-09T20:24:05.054Z,8.50
2018-12-09T20:26:33.334Z,8.50
2018-12-09T20:29:01.588Z,8.40
2018-12-09T20:31:29.838Z,8.40
2018-12-09T20:33:58.167Z,8.40
2018-12-09T20:36:26.606Z,8.40
2018-12-09T20:38:54.911Z,8.50
2018-12-09T20:41:23.676Z,8.50
2018-12-09T20:43:51.954Z,8.50
2018-12-09T20:46:20.210Z,8.50
2018-12-09T20:48:48.486Z,8.40
2018-12-09T20:51:16.743Z,8.40
2018-12-09T20:53:45.010Z,8.40
2018-12-09T20:56:13.299Z,8.40
2018-12-09T20:58:41.545Z,8.40
2018-12-09T21:01:09.799Z,8.30
2018-12-09T21:03:38.461Z,8.40
2018-12-09T21:06:06.717Z,8.40
2018-12-09T21:08:35.067Z,8.40
2018-12-09T21:11:03.338Z,8.40
2018-12-09T21:13:31.631Z,8.40
2018-12-09T21:15:59.891Z,8.40
2018-12-09T21:18:28.170Z,8.40
2018-12-09T21:20:56.426Z,8.40
2018-12-09T21:23:24.679Z,8.40
2018-12-09T21:25:53.567Z,8.40
2018-12-09T21:28:21.818Z,8.40
2018-12-09T21:30:50.078Z,8.40
2018-12-09T21:33:18.369Z,8.30
2018-12-09T21:35:46.623Z,8.40
2018-12-09T21:38:15.412Z,8.40
2018-12-09T21:40:43.790Z,8.40
2018-12-09T21:43:12.064Z,8.40
2018-12-09T21:45:40.313Z,8.40
2018-12-09T21:48:08.988Z,8.50
2018-12-09T21:50:37.409Z,8.50
2018-12-09T21:53:05.658Z,8.50
2018-12-09T21:55:33.942Z,8.50
2018-12-09T21:58:02.690Z,8.50
2018-12-09T22:00:30.942Z,8.40
2018-12-09T22:02:59.226Z,8.50
2018-12-09T22:05:27.530Z,8.50
2018-12-09T22:07:55.830Z,8.40
2018-12-09T22:10:24.393Z,8.40
2018-12-09T22:12:52.834Z,8.40
2018-12-09T22:15:21.166Z,8.30
2018-12-09T22:17:49.444Z,8.30
2018-12-09T22:20:17.693Z,8.30
2018-12-09T22:22:45.963Z,8.20
2018-12-09T22:25:14.254Z,8.10
2018-12-09T22:27:42.506Z,8.10
2018-12-09T22:30:10.762Z,8.00
2018-12-09T22:32:39.503Z,8.00
2018-12-09T22:35:07.766Z,7.90
2018-12-09T22:37:36.023Z,7.90
2018-12-09T22:40:05.618Z,7.90
2018-12-09T22:42:33.871Z,7.90
2018-12-09T22:45:02.126Z,7.90
2018-12-09T22:47:30.399Z,7.80
2018-12-09T22:49:58.686Z,7.80
2018-12-09T22:52:26.949Z,7.80
2018-12-09T22:54:55.540Z,7.70
2018-12-09T22:57:23.786Z,7.70
2018-12-09T22:59:52.051Z,7.70
2018-12-09T23:02:26.179Z,7.70
2018-12-09T23:04:54.441Z,7.60
2018-12-09T23:07:28.514Z,7.60
2018-12-09T23:09:56.772Z,7.60
2018-12-09T23:12:25.166Z,7.60
2018-12-09T23:14:53.937Z,7.60
2018-12-09T23:17:22.197Z,7.50
2018-12-09T23:19:50.455Z,7.50
2018-12-09T23:22:18.722Z,7.50
2018-12-09T23:24:46.979Z,7.50
2018-12-09T23:27:15.238Z,7.50
2018-12-09T23:29:43.514Z,7.60
2018-12-09T23:32:11.769Z,7.70
2018-12-09T23:34:40.022Z,7.60
2018-12-09T23:37:08.740Z,7.60
2018-12-09T23:39:36.994Z,7.50
2018-12-09T23:42:05.414Z,7.50
2018-12-09T23:44:33.702Z,7.50
2018-12-09T23:47:01.950Z,7.50
2018-12-09T23:49:30.202Z,7.50
2018-12-09T23:51:58.482Z,7.50
2018-12-09T23:54:26.736Z,7.40
2018-12-09T23:56:54.987Z,7.30
2018-12-09T23:59:23.618Z,7.30
